createdAt,value
2016-03-20T00:00:41.914Z,0
2016-03-20T00:01:42.011Z,0
2016-03-20T00:02:41.998Z,0
2016-03-20T00:03:42.017Z,0
2016-03-20T00:04:42.019Z,0
2016-03-20T00:05:41.990Z,0
2016-03-20T00:06:42.008Z,0
2016-03-20T00:07:41.980Z,0
2016-03-20T00:08:41.982Z,0
2016-03-20T00:09:41.953Z,0
2016-03-20T00:10:41.956Z,0
2016-03-20T00:11:41.944Z,0
2016-03-20T00:12:41.915Z,0
2016-03-20T00:13:41.933Z,0
2016-03-20T00:14:41.935Z,0
2016-03-20T00:15:41.986Z,0
2016-03-20T00:16:41.926Z,0
2016-03-20T00:17:41.913Z,0
2016-03-20T00:18:41.884Z,0
2016-03-20T00:19:41.888Z,0
2016-03-20T00:20:41.905Z,0
2016-03-20T00:21:41.877Z,0
2016-03-20T00:22:41.926Z,0
2016-03-20T00:23:41.710Z,0
2016-03-20T00:24:41.884Z,0
2016-03-20T00:25:41.840Z,0
2016-03-20T00:26:41.843Z,0
2016-03-20T00:27:41.877Z,0
2016-03-20T00:28:44.004Z,0
2016-03-20T00:29:43.273Z,0
2016-03-20T00:30:41.901Z,0
2016-03-20T00:31:41.966Z,0
2016-03-20T00:32:43.578Z,0
2016-03-20T00:33:44.487Z,0
2016-03-20T00:34:42.099Z,0
2016-03-20T00:35:41.789Z,0
2016-03-20T00:36:42.589Z,0
2016-03-20T00:37:41.920Z,0
2016-03-20T00:38:56.644Z,0
2016-03-20T00:39:41.800Z,0
2016-03-20T00:40:42.412Z,0
2016-03-20T00:41:42.087Z,0
2016-03-20T00:42:56.514Z,0
2016-03-20T00:43:43.920Z,0
2016-03-20T00:44:42.219Z,0
2016-03-20T00:45:42.769Z,0
2016-03-20T00:46:41.944Z,0
2016-03-20T00:47:41.743Z,0
2016-03-20T00:48:42.122Z,0
2016-03-20T00:49:41.702Z,0
2016-03-20T00:50:41.674Z,0
2016-03-20T00:51:41.691Z,0
2016-03-20T00:52:41.679Z,0
2016-03-20T00:53:41.650Z,0
2016-03-20T00:54:41.653Z,0
2016-03-20T00:55:41.640Z,0
2016-03-20T00:56:41.659Z,0
2016-03-20T00:57:41.645Z,0
2016-03-20T00:58:41.648Z,0
2016-03-20T00:59:41.635Z,0
2016-03-20T01:00:41.623Z,0
2016-03-20T01:01:41.625Z,0
2016-03-20T01:02:41.596Z,0
2016-03-20T01:03:41.599Z,0
2016-03-20T01:04:41.586Z,0
2016-03-20T01:05:41.589Z,0
2016-03-20T01:06:41.592Z,0
2016-03-20T01:07:41.595Z,0
2016-03-20T01:08:41.597Z,0
2016-03-20T01:09:41.568Z,0
2016-03-20T01:10:41.556Z,0
2016-03-20T01:11:41.527Z,0
2016-03-20T01:12:41.545Z,0
2016-03-20T01:13:41.516Z,0
2016-03-20T01:14:41.535Z,0
2016-03-20T01:15:41.506Z,0
2016-03-20T01:16:41.524Z,0
2016-03-20T01:17:41.496Z,0
2016-03-20T01:18:41.514Z,0
2016-03-20T01:19:41.486Z,0
2016-03-20T01:20:41.504Z,0
2016-03-20T01:21:41.476Z,0
2016-03-20T01:22:41.493Z,0
2016-03-20T01:23:41.449Z,0
2016-03-20T01:24:41.437Z,0
2016-03-20T01:25:41.440Z,0
2016-03-20T01:26:41.443Z,0
2016-03-20T01:27:41.413Z,0
2016-03-20T01:28:41.416Z,0
2016-03-20T01:29:41.435Z,0
2016-03-20T01:30:41.454Z,0
2016-03-20T01:31:41.393Z,0
2016-03-20T01:32:41.427Z,0
2016-03-20T01:33:41.384Z,0
2016-03-20T01:34:41.417Z,0
2016-03-20T01:35:41.372Z,0
2016-03-20T01:36:41.406Z,0
2016-03-20T01:37:41.347Z,0
2016-03-20T01:38:41.365Z,0
2016-03-20T01:39:41.352Z,0
2016-03-20T01:40:41.356Z,0
2016-03-20T01:41:41.342Z,0
2016-03-20T01:42:41.329Z,0
2016-03-20T01:43:41.331Z,0
2016-03-20T01:44:41.350Z,0
2016-03-20T01:45:40.586Z,0
2016-03-20T01:46:41.293Z,0
2016-03-20T01:47:40.577Z,0
2016-03-20T01:48:42.704Z,0
2016-03-20T01:49:41.301Z,0
2016-03-20T01:50:41.413Z,0
2016-03-20T01:51:42.541Z,0
2016-03-20T01:52:43.919Z,0
2016-03-20T01:53:41.358Z,0
2016-03-20T01:54:41.252Z,0
2016-03-20T01:55:42.068Z,0
2016-03-20T01:56:41.366Z,0
2016-03-20T01:57:43.072Z,0
2016-03-20T01:58:41.247Z,0
2016-03-20T01:59:41.734Z,0
2016-03-20T02:00:41.471Z,0
2016-03-20T02:01:44.114Z,0
2016-03-20T02:02:43.054Z,0
2016-03-20T02:03:41.604Z,0
2016-03-20T02:04:42.154Z,0
2016-03-20T02:05:42.079Z,0
2016-03-20T02:06:41.034Z,0
2016-03-20T02:07:41.442Z,0
2016-03-20T02:08:41.195Z,0
2016-03-20T02:09:41.198Z,0
2016-03-20T02:10:41.170Z,0
2016-03-20T02:11:41.142Z,0
2016-03-20T02:12:41.145Z,0
2016-03-20T02:13:41.084Z,0
2016-03-20T02:14:41.119Z,0
2016-03-20T02:15:41.183Z,0
2016-03-20T02:16:41.092Z,0
2016-03-20T02:17:41.095Z,0
2016-03-20T02:18:41.082Z,0
2016-03-20T02:19:41.069Z,0
2016-03-20T02:20:41.102Z,0
2016-03-20T02:21:41.074Z,0
2016-03-20T02:22:41.061Z,0
2016-03-20T02:23:41.049Z,0
2016-03-20T02:24:41.036Z,0
2016-03-20T02:25:41.054Z,0
2016-03-20T02:26:41.026Z,0
2016-03-20T02:27:41.060Z,0
2016-03-20T02:28:41.015Z,0
2016-03-20T02:29:40.987Z,0
2016-03-20T02:30:41.052Z,0
2016-03-20T02:31:40.992Z,0
2016-03-20T02:32:40.995Z,0
2016-03-20T02:33:40.982Z,0
2016-03-20T02:34:40.968Z,0
2016-03-20T02:35:40.800Z,0
2016-03-20T02:36:40.959Z,0
2016-03-20T02:37:40.993Z,0
2016-03-20T02:38:40.948Z,0
2016-03-20T02:39:40.951Z,0
2016-03-20T02:40:40.954Z,0
2016-03-20T02:41:40.909Z,0
2016-03-20T02:42:40.928Z,0
2016-03-20T02:43:40.899Z,0
2016-03-20T02:44:40.902Z,0
2016-03-20T02:45:40.936Z,0
2016-03-20T02:46:40.891Z,0
2016-03-20T02:47:40.911Z,0
2016-03-20T02:48:40.881Z,0
2016-03-20T02:49:40.884Z,0
2016-03-20T02:50:40.855Z,0
2016-03-20T02:51:40.858Z,0
2016-03-20T02:52:40.846Z,0
2016-03-20T02:53:40.848Z,0
2016-03-20T02:54:40.835Z,0
2016-03-20T02:55:40.838Z,0
2016-03-20T02:56:40.825Z,0
2016-03-20T02:57:40.827Z,0
2016-03-20T02:58:40.830Z,0
2016-03-20T02:59:40.817Z,0
2016-03-20T03:00:40.821Z,0
2016-03-20T03:01:40.776Z,0
2016-03-20T03:02:40.793Z,0
2016-03-20T03:03:40.751Z,0
2016-03-20T03:04:40.768Z,0
2016-03-20T03:05:40.740Z,0
2016-03-20T03:06:43.014Z,0
2016-03-20T03:07:42.283Z,0
2016-03-20T03:08:40.755Z,0
2016-03-20T03:09:41.070Z,0
2016-03-20T03:10:44.166Z,0
2016-03-20T03:11:41.825Z,0
2016-03-20T03:12:41.922Z,0
2016-03-20T03:13:41.986Z,0
2016-03-20T03:14:40.911Z,0
2016-03-20T03:15:41.461Z,0
2016-03-20T03:16:42.541Z,0
2016-03-20T03:17:40.763Z,0
2016-03-20T03:18:55.000Z,0
2016-03-20T03:19:42.721Z,0
2016-03-20T03:20:42.802Z,0
2016-03-20T03:21:41.196Z,0
2016-03-20T03:22:40.682Z,0
2016-03-20T03:23:41.045Z,0
2016-03-20T03:24:41.204Z,0
2016-03-20T03:25:41.159Z,0
2016-03-20T03:26:41.038Z,0
2016-03-20T03:27:40.618Z,0
2016-03-20T03:28:40.621Z,0
2016-03-20T03:29:40.608Z,0
2016-03-20T03:30:40.564Z,0
2016-03-20T03:31:40.581Z,0
2016-03-20T03:32:40.570Z,0
2016-03-20T03:33:40.572Z,0
2016-03-20T03:34:40.543Z,0
2016-03-20T03:35:40.577Z,0
2016-03-20T03:36:40.548Z,0
2016-03-20T03:37:40.536Z,0
2016-03-20T03:38:40.539Z,0
2016-03-20T03:39:40.525Z,0
2016-03-20T03:40:40.512Z,0
2016-03-20T03:41:40.500Z,0
2016-03-20T03:42:40.486Z,0
2016-03-20T03:43:40.474Z,0
2016-03-20T03:44:40.491Z,0
2016-03-20T03:45:40.494Z,0
2016-03-20T03:46:40.450Z,0
2016-03-20T03:47:40.485Z,0
2016-03-20T03:48:40.424Z,0
2016-03-20T03:49:40.458Z,0
2016-03-20T03:50:40.446Z,0
2016-03-20T03:51:40.432Z,0
2016-03-20T03:52:40.452Z,0
2016-03-20T03:53:40.423Z,0
2016-03-20T03:54:40.394Z,0
2016-03-20T03:55:40.412Z,0
2016-03-20T03:56:40.399Z,0
2016-03-20T03:57:40.418Z,0
2016-03-20T03:58:40.389Z,0
2016-03-20T03:59:40.376Z,0
2016-03-20T04:00:40.347Z,0
2016-03-20T04:01:40.382Z,0
2016-03-20T04:02:40.358Z,0
2016-03-20T04:03:40.330Z,0
2016-03-20T04:04:40.316Z,0
2016-03-20T04:05:40.381Z,0
2016-03-20T04:06:40.009Z,0
2016-03-20T04:07:40.340Z,0
2016-03-20T04:08:40.311Z,0
2016-03-20T04:09:40.313Z,0
2016-03-20T04:10:40.301Z,0
2016-03-20T04:11:40.273Z,0
2016-03-20T04:12:40.135Z,0
2016-03-20T04:13:40.262Z,0
2016-03-20T04:14:40.250Z,0
2016-03-20T04:15:40.252Z,0
2016-03-20T04:16:40.285Z,0
2016-03-20T04:17:40.257Z,0
2016-03-20T04:18:40.213Z,0
2016-03-20T04:19:40.231Z,0
2016-03-20T04:20:40.235Z,0
2016-03-20T04:21:40.206Z,0
2016-03-20T04:22:40.208Z,0
2016-03-20T04:23:40.212Z,0
2016-03-20T04:24:40.167Z,0
2016-03-20T04:25:42.403Z,0
2016-03-20T04:26:41.720Z,0
2016-03-20T04:27:40.165Z,0
2016-03-20T04:28:40.342Z,0
2016-03-20T04:29:42.332Z,0
2016-03-20T04:30:40.119Z,0
2016-03-20T04:31:40.422Z,0
2016-03-20T04:32:40.090Z,0
2016-03-20T04:33:40.884Z,0
2016-03-20T04:34:40.196Z,0
2016-03-20T04:35:41.788Z,0
2016-03-20T04:36:40.145Z,0
2016-03-20T04:37:40.615Z,0
2016-03-20T04:38:40.335Z,0
2016-03-20T04:39:40.242Z,0
2016-03-20T04:40:42.212Z,0
2016-03-20T04:41:40.494Z,0
2016-03-20T04:42:41.027Z,0
2016-03-20T04:43:40.201Z,0
2016-03-20T04:44:39.953Z,0
2016-03-20T04:45:40.407Z,0
2016-03-20T04:46:40.003Z,0
2016-03-20T04:47:39.928Z,0
2016-03-20T04:48:39.899Z,0
2016-03-20T04:49:39.886Z,0
2016-03-20T04:50:39.936Z,0
2016-03-20T04:51:39.876Z,0
2016-03-20T04:52:39.894Z,0
2016-03-20T04:53:39.881Z,0
2016-03-20T04:54:39.853Z,0
2016-03-20T04:55:39.886Z,0
2016-03-20T04:56:39.859Z,0
2016-03-20T04:57:39.845Z,0
2016-03-20T04:58:39.847Z,0
2016-03-20T04:59:39.820Z,0
2016-03-20T05:00:39.822Z,0
2016-03-20T05:01:39.824Z,0
2016-03-20T05:02:39.844Z,0
2016-03-20T05:03:39.846Z,0
2016-03-20T05:04:39.786Z,0
2016-03-20T05:05:39.805Z,0
2016-03-20T05:06:39.791Z,0
2016-03-20T05:07:39.762Z,0
2016-03-20T05:08:39.797Z,0
2016-03-20T05:09:39.752Z,0
2016-03-20T05:10:39.786Z,0
2016-03-20T05:11:39.711Z,0
2016-03-20T05:12:39.729Z,0
2016-03-20T05:13:39.748Z,0
2016-03-20T05:14:39.751Z,0
2016-03-20T05:15:39.706Z,0
2016-03-20T05:16:39.740Z,0
2016-03-20T05:17:39.727Z,5
2016-03-20T05:18:39.714Z,5
2016-03-20T05:19:39.670Z,5
2016-03-20T05:20:39.673Z,5
2016-03-20T05:21:39.723Z,5
2016-03-20T05:22:39.662Z,5
2016-03-20T05:23:39.665Z,5
2016-03-20T05:24:39.653Z,5
2016-03-20T05:25:39.623Z,5
2016-03-20T05:26:39.673Z,5
2016-03-20T05:27:39.597Z,5
2016-03-20T05:28:39.460Z,5
2016-03-20T05:29:39.618Z,5
2016-03-20T05:30:39.591Z,10
2016-03-20T05:31:39.624Z,10
2016-03-20T05:32:39.596Z,10
2016-03-20T05:33:39.583Z,10
2016-03-20T05:34:39.554Z,15
2016-03-20T05:35:39.572Z,10
2016-03-20T05:36:39.575Z,10
2016-03-20T05:37:39.562Z,15
2016-03-20T05:38:39.549Z,15
2016-03-20T05:39:39.536Z,15
2016-03-20T05:40:39.507Z,20
2016-03-20T05:41:39.558Z,25
2016-03-20T05:42:39.482Z,30
2016-03-20T05:43:39.515Z,30
2016-03-20T05:44:41.691Z,30
2016-03-20T05:45:40.927Z,30
2016-03-20T05:46:39.523Z,35
2016-03-20T05:47:39.495Z,30
2016-03-20T05:48:42.451Z,30
2016-03-20T05:49:40.017Z,35
2016-03-20T05:50:40.645Z,35
2016-03-20T05:51:40.131Z,35
2016-03-20T05:52:40.509Z,30
2016-03-20T05:53:39.621Z,35
2016-03-20T05:54:41.842Z,30
2016-03-20T05:55:53.766Z,30
2016-03-20T05:56:53.753Z,30
2016-03-20T05:58:40.525Z,30
2016-03-20T05:59:39.434Z,30
2016-03-20T06:00:40.514Z,30
2016-03-20T06:01:40.720Z,30
2016-03-20T06:02:40.208Z,30
2016-03-20T06:03:39.929Z,35
2016-03-20T06:04:39.369Z,35
2016-03-20T06:05:39.355Z,40
2016-03-20T06:06:39.344Z,40
2016-03-20T06:07:39.346Z,45
2016-03-20T06:08:39.333Z,45
2016-03-20T06:09:39.367Z,45
2016-03-20T06:10:39.307Z,45
2016-03-20T06:11:39.326Z,45
2016-03-20T06:12:39.281Z,45
2016-03-20T06:13:39.315Z,45
2016-03-20T06:14:39.301Z,40
2016-03-20T06:15:39.274Z,40
2016-03-20T06:16:39.276Z,35
2016-03-20T06:17:39.279Z,35
2016-03-20T06:18:39.251Z,35
2016-03-20T06:19:39.253Z,40
2016-03-20T06:20:39.240Z,45
2016-03-20T06:21:39.259Z,45
2016-03-20T06:22:39.042Z,50
2016-03-20T06:23:39.217Z,50
2016-03-20T06:24:39.203Z,50
2016-03-20T06:25:39.206Z,50
2016-03-20T06:26:39.225Z,55
2016-03-20T06:27:39.181Z,55
2016-03-20T06:28:39.199Z,55
2016-03-20T06:29:39.186Z,55
2016-03-20T06:30:39.189Z,55
2016-03-20T06:31:39.176Z,55
2016-03-20T06:32:39.164Z,50
2016-03-20T06:33:39.150Z,55
2016-03-20T06:34:39.153Z,65
2016-03-20T06:35:39.125Z,65
2016-03-20T06:36:39.143Z,85
2016-03-20T06:37:39.129Z,125
2016-03-20T06:38:39.085Z,150
2016-03-20T06:39:39.119Z,160
2016-03-20T06:40:39.091Z,170
2016-03-20T06:41:39.109Z,190
2016-03-20T06:42:39.096Z,190
2016-03-20T06:43:39.052Z,225
2016-03-20T06:44:39.102Z,225
2016-03-20T06:45:39.042Z,220
2016-03-20T06:46:39.060Z,215
2016-03-20T06:47:39.048Z,220
2016-03-20T06:48:39.051Z,235
2016-03-20T06:49:39.037Z,265
2016-03-20T06:50:39.039Z,255
2016-03-20T06:51:39.027Z,260
2016-03-20T06:52:39.029Z,255
2016-03-20T06:53:39.017Z,240
2016-03-20T06:54:39.020Z,250
2016-03-20T06:55:39.022Z,275
2016-03-20T06:56:39.025Z,300
2016-03-20T06:57:38.965Z,280
2016-03-20T06:58:38.983Z,250
2016-03-20T06:59:39.001Z,240
2016-03-20T07:00:38.973Z,220
2016-03-20T07:01:38.975Z,180
2016-03-20T07:02:38.978Z,140
2016-03-20T07:03:40.809Z,105
2016-03-20T07:04:40.108Z,80
2016-03-20T07:05:38.939Z,70
2016-03-20T07:06:38.958Z,70
2016-03-20T07:07:41.210Z,70
2016-03-20T07:08:39.416Z,65
2016-03-20T07:09:39.950Z,65
2016-03-20T07:10:39.640Z,70
2016-03-20T07:11:39.316Z,70
2016-03-20T07:12:39.177Z,70
2016-03-20T07:13:41.102Z,70
2016-03-20T07:14:40.682Z,70
2016-03-20T07:15:39.685Z,70
2016-03-20T07:16:40.376Z,80
2016-03-20T07:17:39.518Z,80
2016-03-20T07:18:38.881Z,75
2016-03-20T07:19:40.461Z,70
2016-03-20T07:20:38.840Z,70
2016-03-20T07:21:39.139Z,70
2016-03-20T07:22:39.298Z,75
2016-03-20T07:23:38.956Z,85
2016-03-20T07:24:38.818Z,85
2016-03-20T07:25:38.821Z,75
2016-03-20T07:26:38.855Z,70
2016-03-20T07:27:38.811Z,70
2016-03-20T07:28:38.814Z,65
2016-03-20T07:29:38.847Z,75
2016-03-20T07:30:38.788Z,75
2016-03-20T07:31:38.822Z,80
2016-03-20T07:32:38.777Z,80
2016-03-20T07:33:38.797Z,85
2016-03-20T07:34:38.799Z,80
2016-03-20T07:35:38.785Z,85
2016-03-20T07:36:38.773Z,90
2016-03-20T07:37:38.763Z,95
2016-03-20T07:38:38.905Z,95
2016-03-20T07:39:38.972Z,90
2016-03-20T07:40:38.739Z,90
2016-03-20T07:41:38.710Z,85
2016-03-20T07:42:38.698Z,100
2016-03-20T07:43:38.732Z,115
2016-03-20T07:44:38.703Z,115
2016-03-20T07:45:38.706Z,115
2016-03-20T07:46:38.708Z,110
2016-03-20T07:47:38.680Z,105
2016-03-20T07:48:38.683Z,105
2016-03-20T07:49:38.654Z,110
2016-03-20T07:50:38.657Z,110
2016-03-20T07:51:38.676Z,110
2016-03-20T07:52:38.693Z,120
2016-03-20T07:53:38.666Z,125
2016-03-20T07:54:38.621Z,125
2016-03-20T07:55:38.639Z,125
2016-03-20T07:56:38.658Z,130
2016-03-20T07:57:38.613Z,135
2016-03-20T07:58:38.601Z,125
2016-03-20T07:59:38.587Z,120
2016-03-20T08:00:38.606Z,125
2016-03-20T08:01:38.608Z,125
2016-03-20T08:02:38.596Z,135
2016-03-20T08:03:38.598Z,140
2016-03-20T08:04:38.569Z,140
2016-03-20T08:05:38.573Z,140
2016-03-20T08:06:38.559Z,130
2016-03-20T08:07:38.547Z,130
2016-03-20T08:08:38.564Z,125
2016-03-20T08:09:38.536Z,125
2016-03-20T08:10:38.555Z,125
2016-03-20T08:11:38.510Z,135
2016-03-20T08:12:38.513Z,140
2016-03-20T08:13:38.516Z,145
2016-03-20T08:14:38.550Z,150
2016-03-20T08:15:38.521Z,145
2016-03-20T08:16:38.477Z,145
2016-03-20T08:17:38.510Z,140
2016-03-20T08:18:38.482Z,130
2016-03-20T08:19:38.501Z,135
2016-03-20T08:20:38.488Z,150
2016-03-20T08:21:38.490Z,145
2016-03-20T08:22:40.212Z,135
2016-03-20T08:23:39.605Z,125
2016-03-20T08:24:38.467Z,125
2016-03-20T08:25:38.454Z,125
2016-03-20T08:26:54.363Z,120
2016-03-20T08:27:39.131Z,125
2016-03-20T08:28:39.526Z,130
2016-03-20T08:29:39.293Z,125
2016-03-20T08:30:39.015Z,130
2016-03-20T08:31:38.923Z,125
2016-03-20T08:32:40.848Z,140
2016-03-20T08:33:40.335Z,130
2016-03-20T08:34:39.322Z,125
2016-03-20T08:35:40.137Z,150
2016-03-20T08:36:39.375Z,155
2016-03-20T08:37:38.675Z,125
2016-03-20T08:38:38.380Z,130
2016-03-20T08:39:38.539Z,130
2016-03-20T08:40:38.886Z,135
2016-03-20T08:41:38.997Z,150
2016-03-20T08:42:38.734Z,170
2016-03-20T08:43:38.315Z,160
2016-03-20T08:44:38.396Z,165
2016-03-20T08:45:38.367Z,145
2016-03-20T08:46:38.308Z,150
2016-03-20T08:47:38.326Z,160
2016-03-20T08:48:38.329Z,160
2016-03-20T08:49:38.316Z,165
2016-03-20T08:50:38.287Z,180
2016-03-20T08:51:38.337Z,175
2016-03-20T08:52:38.277Z,165
2016-03-20T08:53:38.326Z,160
2016-03-20T08:54:38.282Z,190
2016-03-20T08:55:38.285Z,210
2016-03-20T08:56:38.241Z,195
2016-03-20T08:57:38.243Z,185
2016-03-20T08:58:38.277Z,195
2016-03-20T08:59:38.249Z,210
2016-03-20T09:00:38.267Z,225
2016-03-20T09:01:38.223Z,220
2016-03-20T09:02:38.319Z,225
2016-03-20T09:03:38.245Z,260
2016-03-20T09:04:38.215Z,280
2016-03-20T09:05:38.202Z,255
2016-03-20T09:06:37.783Z,245
2016-03-20T09:07:38.192Z,240
2016-03-20T09:08:38.226Z,250
2016-03-20T09:09:38.025Z,250
2016-03-20T09:10:38.169Z,245
2016-03-20T09:11:38.219Z,265
2016-03-20T09:12:38.159Z,275
2016-03-20T09:13:38.161Z,270
2016-03-20T09:14:38.164Z,255
2016-03-20T09:15:38.167Z,270
2016-03-20T09:16:38.185Z,260
2016-03-20T09:17:37.453Z,270
2016-03-20T09:18:38.160Z,275
2016-03-20T09:19:38.130Z,270
2016-03-20T09:20:38.149Z,285
2016-03-20T09:21:38.152Z,270
2016-03-20T09:22:38.123Z,255
2016-03-20T09:23:38.126Z,255
2016-03-20T09:24:38.113Z,240
2016-03-20T09:25:38.115Z,230
2016-03-20T09:26:38.134Z,225
2016-03-20T09:27:38.090Z,205
2016-03-20T09:28:38.107Z,245
2016-03-20T09:29:38.065Z,245
2016-03-20T09:30:38.082Z,205
2016-03-20T09:31:38.115Z,215
2016-03-20T09:32:38.135Z,225
2016-03-20T09:33:38.075Z,220
2016-03-20T09:34:38.108Z,210
2016-03-20T09:35:38.048Z,220
2016-03-20T09:36:38.083Z,240
2016-03-20T09:37:38.117Z,195
2016-03-20T09:38:38.042Z,195
2016-03-20T09:39:38.059Z,170
2016-03-20T09:40:38.031Z,145
2016-03-20T09:41:40.128Z,175
2016-03-20T09:42:53.677Z,220
2016-03-20T09:43:38.022Z,200
2016-03-20T09:44:38.292Z,195
2016-03-20T09:45:39.435Z,165
2016-03-20T09:46:38.031Z,160
2016-03-20T09:47:38.472Z,165
2016-03-20T09:48:38.005Z,180
2016-03-20T09:49:39.008Z,180
2016-03-20T09:50:38.371Z,220
2016-03-20T09:51:53.530Z,220
2016-03-20T09:52:38.157Z,210
2016-03-20T09:53:38.004Z,230
2016-03-20T09:54:38.803Z,210
2016-03-20T09:55:38.665Z,190
2016-03-20T09:56:37.965Z,165
2016-03-20T09:57:39.140Z,145
2016-03-20T09:58:37.970Z,150
2016-03-20T09:59:37.973Z,170
2016-03-20T10:00:37.928Z,180
2016-03-20T10:01:37.962Z,165
2016-03-20T10:02:38.012Z,140
2016-03-20T10:03:37.921Z,195
2016-03-20T10:04:37.954Z,225
2016-03-20T10:05:37.942Z,250
2016-03-20T10:06:37.929Z,255
2016-03-20T10:07:37.900Z,250
2016-03-20T10:08:37.919Z,250
2016-03-20T10:09:37.905Z,250
2016-03-20T10:10:37.909Z,245
2016-03-20T10:11:37.911Z,240
2016-03-20T10:12:37.898Z,230
2016-03-20T10:13:37.886Z,215
2016-03-20T10:14:37.888Z,215
2016-03-20T10:15:37.906Z,225
2016-03-20T10:16:37.877Z,230
2016-03-20T10:17:37.880Z,230
2016-03-20T10:18:37.852Z,250
2016-03-20T10:19:37.869Z,245
2016-03-20T10:20:37.858Z,240
2016-03-20T10:21:37.860Z,250
2016-03-20T10:22:37.863Z,255
2016-03-20T10:23:37.881Z,250
2016-03-20T10:24:37.837Z,240
2016-03-20T10:25:37.840Z,235
2016-03-20T10:26:37.843Z,240
2016-03-20T10:27:37.673Z,240
2016-03-20T10:28:37.816Z,245
2016-03-20T10:29:37.835Z,235
2016-03-20T10:30:37.791Z,225
2016-03-20T10:31:37.824Z,230
2016-03-20T10:32:37.812Z,230
2016-03-20T10:33:37.815Z,205
2016-03-20T10:34:37.801Z,185
2016-03-20T10:35:37.820Z,205
2016-03-20T10:36:37.790Z,230
2016-03-20T10:37:37.779Z,235
2016-03-20T10:38:37.765Z,245
2016-03-20T10:39:37.783Z,260
2016-03-20T10:40:37.786Z,275
2016-03-20T10:41:37.758Z,270
2016-03-20T10:42:37.744Z,280
2016-03-20T10:43:37.747Z,305
2016-03-20T10:44:37.766Z,315
2016-03-20T10:45:37.753Z,315
2016-03-20T10:46:37.786Z,315
2016-03-20T10:47:37.742Z,320
2016-03-20T10:48:37.730Z,315
2016-03-20T10:49:37.716Z,310
2016-03-20T10:50:37.750Z,295
2016-03-20T10:51:37.722Z,280
2016-03-20T10:52:37.724Z,270
2016-03-20T10:53:37.728Z,285
2016-03-20T10:54:37.714Z,320
2016-03-20T10:55:37.748Z,355
2016-03-20T10:56:37.735Z,335
2016-03-20T10:57:37.707Z,320
2016-03-20T10:58:37.693Z,320
2016-03-20T10:59:37.681Z,305
2016-03-20T11:00:38.043Z,300
2016-03-20T11:01:51.858Z,315
2016-03-20T11:02:37.845Z,345
2016-03-20T11:03:51.879Z,365
2016-03-20T11:04:38.226Z,380
2016-03-20T11:05:39.306Z,395
2016-03-20T11:06:39.387Z,380
2016-03-20T11:07:39.311Z,375
2016-03-20T11:08:38.658Z,365
2016-03-20T11:09:38.255Z,365
2016-03-20T11:10:38.648Z,360
2016-03-20T11:11:38.666Z,335
2016-03-20T11:12:37.934Z,315
2016-03-20T11:13:37.844Z,305
2016-03-20T11:14:41.408Z,305
2016-03-20T11:15:39.692Z,285
2016-03-20T11:16:38.445Z,250
2016-03-20T11:17:38.776Z,220
2016-03-20T11:18:38.044Z,205
2016-03-20T11:19:37.750Z,195
2016-03-20T11:20:38.128Z,185
2016-03-20T11:21:37.615Z,170
2016-03-20T11:22:37.633Z,155
2016-03-20T11:23:37.605Z,155
2016-03-20T11:24:37.607Z,145
2016-03-20T11:25:37.611Z,170
2016-03-20T11:26:37.629Z,195
2016-03-20T11:27:37.600Z,230
2016-03-20T11:28:37.634Z,285
2016-03-20T11:29:37.637Z,305
2016-03-20T11:30:37.608Z,295
2016-03-20T11:31:37.595Z,300
2016-03-20T11:32:37.582Z,345
2016-03-20T11:33:37.585Z,385
2016-03-20T11:34:37.588Z,370
2016-03-20T11:35:37.606Z,345
2016-03-20T11:36:37.576Z,355
2016-03-20T11:37:37.596Z,360
2016-03-20T11:38:37.567Z,350
2016-03-20T11:39:37.584Z,325
2016-03-20T11:40:37.634Z,305
2016-03-20T11:41:40.090Z,285
2016-03-20T11:42:37.578Z,270
2016-03-20T11:43:37.565Z,260
2016-03-20T11:44:37.553Z,250
2016-03-20T11:45:37.555Z,230
2016-03-20T11:46:37.588Z,240
2016-03-20T11:47:37.528Z,230
2016-03-20T11:48:50.906Z,195
2016-03-20T11:49:37.550Z,180
2016-03-20T11:50:37.552Z,165
2016-03-20T11:51:37.539Z,150
2016-03-20T11:52:37.558Z,140
2016-03-20T11:53:37.529Z,135
2016-03-20T11:54:37.532Z,150
2016-03-20T11:55:37.534Z,185
2016-03-20T11:56:37.505Z,185
2016-03-20T11:57:37.540Z,205
2016-03-20T11:58:37.496Z,205
2016-03-20T11:59:37.530Z,210
2016-03-20T12:00:37.517Z,210
2016-03-20T12:01:37.519Z,255
2016-03-20T12:02:37.522Z,305
2016-03-20T12:03:37.494Z,395
2016-03-20T12:04:37.512Z,440
2016-03-20T12:05:37.483Z,395
2016-03-20T12:06:37.470Z,310
2016-03-20T12:07:37.489Z,285
2016-03-20T12:08:37.475Z,260
2016-03-20T12:09:37.479Z,245
2016-03-20T12:10:37.465Z,230
2016-03-20T12:11:37.484Z,245
2016-03-20T12:12:37.487Z,265
2016-03-20T12:13:37.474Z,280
2016-03-20T12:14:37.461Z,320
2016-03-20T12:15:37.478Z,385
2016-03-20T12:16:37.450Z,400
2016-03-20T12:17:37.484Z,370
2016-03-20T12:18:37.439Z,350
2016-03-20T12:19:40.661Z,305
2016-03-20T12:20:39.117Z,245
2016-03-20T12:21:37.433Z,225
2016-03-20T12:22:37.419Z,190
2016-03-20T12:23:41.407Z,200
2016-03-20T12:24:38.894Z,210
2016-03-20T12:25:53.505Z,230
2016-03-20T12:26:38.431Z,260
2016-03-20T12:27:38.261Z,245
2016-03-20T12:28:37.951Z,210
2016-03-20T12:29:38.299Z,235
2016-03-20T12:30:38.332Z,245
2016-03-20T12:31:37.568Z,245
2016-03-20T12:32:52.682Z,285
2016-03-20T12:33:40.434Z,300
2016-03-20T12:34:39.843Z,235
2016-03-20T12:35:38.533Z,220
2016-03-20T12:36:38.707Z,210
2016-03-20T12:37:37.929Z,225
2016-03-20T12:38:37.635Z,245
2016-03-20T12:39:37.965Z,265
2016-03-20T12:40:37.374Z,260
2016-03-20T12:41:37.362Z,225
2016-03-20T12:42:37.380Z,230
2016-03-20T12:43:37.257Z,285
2016-03-20T12:44:37.338Z,255
2016-03-20T12:45:37.372Z,245
2016-03-20T12:46:37.328Z,250
2016-03-20T12:47:37.347Z,280
2016-03-20T12:48:37.318Z,260
2016-03-20T12:49:37.352Z,265
2016-03-20T12:50:37.308Z,275
2016-03-20T12:51:37.311Z,200
2016-03-20T12:52:37.360Z,185
2016-03-20T12:53:37.316Z,240
2016-03-20T12:54:37.334Z,315
2016-03-20T12:55:37.336Z,340
2016-03-20T12:56:37.292Z,380
2016-03-20T12:57:37.373Z,380
2016-03-20T12:58:37.313Z,375
2016-03-20T12:59:37.300Z,380
2016-03-20T13:00:37.302Z,365
2016-03-20T13:01:37.290Z,350
2016-03-20T13:02:37.293Z,435
2016-03-20T13:03:37.265Z,455
2016-03-20T13:04:37.298Z,510
2016-03-20T13:05:37.285Z,470
2016-03-20T13:06:36.960Z,420
2016-03-20T13:07:37.275Z,425
2016-03-20T13:08:37.294Z,430
2016-03-20T13:09:37.281Z,395
2016-03-20T13:10:37.252Z,370
2016-03-20T13:11:37.254Z,320
2016-03-20T13:12:37.273Z,260
2016-03-20T13:13:37.260Z,265
2016-03-20T13:14:37.294Z,295
2016-03-20T13:15:37.250Z,240
2016-03-20T13:16:37.237Z,205
2016-03-20T13:17:37.240Z,225
2016-03-20T13:18:37.070Z,260
2016-03-20T13:19:37.261Z,325
2016-03-20T13:20:37.217Z,365
2016-03-20T13:21:37.234Z,340
2016-03-20T13:22:37.237Z,405
2016-03-20T13:23:37.225Z,430
2016-03-20T13:24:37.228Z,415
2016-03-20T13:25:37.214Z,370
2016-03-20T13:26:37.217Z,360
2016-03-20T13:27:37.235Z,355
2016-03-20T13:28:37.207Z,370
2016-03-20T13:29:37.225Z,405
2016-03-20T13:30:37.197Z,415
2016-03-20T13:31:37.247Z,390
2016-03-20T13:32:37.203Z,355
2016-03-20T13:33:37.176Z,340
2016-03-20T13:34:37.196Z,345
2016-03-20T13:35:37.167Z,305
2016-03-20T13:36:37.124Z,345
2016-03-20T13:37:37.128Z,370
2016-03-20T13:38:37.657Z,400
2016-03-20T13:39:39.169Z,405
2016-03-20T13:40:37.073Z,400
2016-03-20T13:41:37.336Z,395
2016-03-20T13:42:40.317Z,380
2016-03-20T13:43:37.990Z,315
2016-03-20T13:44:38.335Z,270
2016-03-20T13:45:38.305Z,350
2016-03-20T13:46:37.431Z,355
2016-03-20T13:47:38.150Z,295
2016-03-20T13:48:38.292Z,315
2016-03-20T13:49:38.012Z,345
2016-03-20T13:50:37.217Z,345
2016-03-20T13:51:51.219Z,300
2016-03-20T13:52:39.815Z,295
2016-03-20T13:53:38.724Z,330
2016-03-20T13:54:37.227Z,315
2016-03-20T13:55:37.776Z,310
2016-03-20T13:56:37.762Z,315
2016-03-20T13:57:37.702Z,325
2016-03-20T13:58:37.049Z,325
2016-03-20T13:59:37.269Z,275
2016-03-20T14:00:37.038Z,270
2016-03-20T14:01:37.041Z,305
2016-03-20T14:02:37.044Z,320
2016-03-20T14:03:37.000Z,290
2016-03-20T14:04:37.019Z,270
2016-03-20T14:05:37.021Z,210
2016-03-20T14:06:37.024Z,170
2016-03-20T14:07:37.026Z,170
2016-03-20T14:08:51.201Z,180
2016-03-20T14:09:51.188Z,215
2016-03-20T14:10:37.002Z,275
2016-03-20T14:12:37.007Z,335
2016-03-20T14:13:37.010Z,340
2016-03-20T14:14:37.013Z,335